Time;durP1;ratioP1;P1;durP2;ratioP2;P2;SDS_P1;SDS_P2;PMS_P1;PMS_P2;Temp;Humidity;BMP_temperature;BMP_pressure;BME280_temperature;BME280_humidity;BME280_pressure;Samples;Min_cycle;Max_cycle;Signal;HPM_P1;HPM_P2
2023/05/17 00:01:54;;;;;;;6.55;1.65;;;;;;;19.38;100.00;99571.13;5073670;28;20194;-80
2023/05/17 00:04:20;;;;;;;5.15;1.48;;;;;;;19.20;100.00;99575.13;5073311;28;20224;-80
2023/05/17 00:06:47;;;;;;;14.45;4.25;;;;;;;19.10;100.00;99571.03;5073050;28;20659;-80
2023/05/17 00:09:15;;;;;;;8.73;1.98;;;;;;;19.18;100.00;99566.44;5073322;28;20649;-80
2023/05/17 00:11:42;;;;;;;7.72;1.73;;;;;;;18.95;100.00;99549.56;5072866;28;20218;-80
2023/05/17 00:14:09;;;;;;;9.70;2.00;;;;;;;18.83;100.00;99534.16;5073266;28;20206;-80
2023/05/17 00:16:35;;;;;;;7.53;1.95;;;;;;;18.93;100.00;99554.88;5073615;28;20216;-79
2023/05/17 00:19:02;;;;;;;4.70;1.42;;;;;;;18.91;100.00;99571.56;5072658;28;20223;-80
2023/05/17 00:21:30;;;;;;;5.68;1.50;;;;;;;18.98;100.00;99587.13;5073434;28;20603;-80
2023/05/17 00:23:56;;;;;;;2.83;1.10;;;;;;;18.88;100.00;99611.06;5073357;28;20198;-81
2023/05/17 00:26:25;;;;;;;5.25;1.35;;;;;;;18.81;100.00;99623.50;5073218;28;20214;-82
2023/05/17 00:28:51;;;;;;;4.00;1.20;;;;;;;18.67;100.00;99623.00;5073217;28;20207;-80
2023/05/17 00:31:18;;;;;;;5.65;1.50;;;;;;;18.70;100.00;99636.91;5020715;28;20198;-79
2023/05/17 00:33:46;;;;;;;6.35;1.50;;;;;;;18.73;100.00;99623.69;5073457;28;20199;-73
2023/05/17 00:36:13;;;;;;;7.10;1.70;;;;;;;18.84;100.00;99631.31;5021478;28;20245;-78
2023/05/17 00:38:39;;;;;;;6.50;1.50;;;;;;;18.90;100.00;99646.06;5013258;28;20216;-79
2023/05/17 00:41:06;;;;;;;7.18;1.67;;;;;;;18.73;100.00;99654.34;5053002;28;20268;-81
2023/05/17 00:43:34;;;;;;;7.38;1.58;;;;;;;18.66;100.00;99647.53;5062582;28;20199;-79
2023/05/17 00:46:01;;;;;;;9.48;1.88;;;;;;;18.63;100.00;99652.84;5072750;28;20195;-79
2023/05/17 00:48:29;;;;;;;6.88;1.45;;;;;;;18.30;100.00;99638.72;5072550;28;20323;-79
2023/05/17 00:50:56;;;;;;;6.88;1.67;;;;;;;18.27;100.00;99646.69;5072775;28;20203;-80
2023/05/17 00:53:23;;;;;;;7.03;1.55;;;;;;;18.23;100.00;99643.25;5072720;28;20244;-81
2023/05/17 00:55:50;;;;;;;8.30;2.33;;;;;;;18.05;100.00;99612.19;5072723;28;20662;-81
2023/05/17 00:58:17;;;;;;;6.38;1.60;;;;;;;17.87;100.00;99617.88;5072459;28;20733;-81
2023/05/17 01:00:46;;;;;;;6.70;1.73;;;;;;;18.04;100.00;99635.84;5022355;28;20227;-79
2023/05/17 01:03:13;;;;;;;6.88;1.52;;;;;;;17.89;100.00;99626.56;5071503;28;20211;-80
2023/05/17 01:05:40;;;;;;;6.45;1.48;;;;;;;17.72;100.00;99618.19;5072417;28;20573;-80
2023/05/17 01:08:07;;;;;;;6.53;1.63;;;;;;;17.70;100.00;99609.50;5072516;28;20211;-80
2023/05/17 01:10:41;;;;;;;6.80;1.60;;;;;;;17.63;100.00;99618.38;5072379;28;20657;-82
2023/05/17 01:13:14;;;;;;;5.10;1.42;;;;;;;17.43;100.00;99612.66;5072273;28;20637;-81
2023/05/17 01:15:46;;;;;;;6.95;1.55;;;;;;;17.50;100.00;99598.53;5072170;28;20190;-80
2023/05/17 01:18:21;;;;;;;6.30;1.60;;;;;;;17.33;100.00;99581.41;5072037;28;20257;-81
2023/05/17 01:20:50;;;;;;;7.43;1.67;;;;;;;16.96;100.00;99562.06;5072031;28;20640;-80
2023/05/17 01:23:45;;;;;;;7.60;1.77;;;;;;;16.88;100.00;99542.13;5016944;28;20286;-80
2023/05/17 01:26:16;;;;;;;7.13;1.58;;;;;;;17.05;100.00;99567.09;5064141;28;20281;-80
2023/05/17 01:28:49;;;;;;;5.75;1.50;;;;;;;16.95;100.00;99576.03;5071816;28;20199;-80
2023/05/17 01:31:16;;;;;;;5.40;1.38;;;;;;;16.88;100.00;99566.56;5036652;28;20195;-79
2023/05/17 01:33:43;;;;;;;5.93;1.50;;;;;;;16.78;100.00;99583.34;5070988;28;20267;-80
2023/05/17 01:36:10;;;;;;;8.55;1.90;;;;;;;16.74;100.00;99592.16;5071721;28;20256;-81
2023/05/17 01:38:37;;;;;;;6.57;1.60;;;;;;;16.62;100.00;99547.88;5071599;28;20606;-81
2023/05/17 01:41:10;;;;;;;5.80;1.60;;;;;;;16.98;100.00;99583.84;5032973;28;20219;-81
2023/05/17 01:43:42;;;;;;;6.25;1.52;;;;;;;16.77;100.00;99589.47;5071554;28;20237;-80
2023/05/17 01:46:18;;;;;;;6.00;2.22;;;;;;;16.71;100.00;99589.59;5071915;28;20217;-80
2023/05/17 01:48:51;;;;;;;6.63;1.60;;;;;;;16.76;100.00;99585.16;5071438;28;20205;-80
2023/05/17 01:51:21;;;;;;;7.78;1.88;;;;;;;16.73;100.00;99577.34;5036588;28;20203;-80
2023/05/17 01:53:51;;;;;;;6.53;1.65;;;;;;;16.70;100.00;99585.22;5071413;28;20203;-79
2023/05/17 01:56:21;;;;;;;5.88;1.55;;;;;;;16.80;100.00;99598.13;5071747;28;20218;-80
2023/05/17 01:58:49;;;;;;;6.00;2.03;;;;;;;16.73;100.00;99601.75;5071332;28;20213;-80
2023/05/17 02:01:19;;;;;;;8.77;2.03;;;;;;;16.85;100.00;99591.06;5070984;28;20206;-80
2023/05/17 02:03:49;;;;;;;5.95;1.67;;;;;;;16.68;100.00;99559.09;5053145;28;20195;-81
2023/05/17 02:06:16;;;;;;;7.40;1.75;;;;;;;16.23;100.00;99512.78;5071061;28;20227;-79
2023/05/17 02:08:43;;;;;;;6.88;1.70;;;;;;;16.44;100.00;99546.41;5071400;28;20253;-82
2023/05/17 02:11:10;;;;;;;8.90;2.20;;;;;;;16.58;100.00;99564.53;5071533;28;20267;-82
2023/05/17 02:13:36;;;;;;;6.45;1.55;;;;;;;16.48;100.00;99549.84;5071363;28;20194;-74
2023/05/17 02:16:04;;;;;;;7.13;1.75;;;;;;;16.63;100.00;99573.13;5071062;28;20199;-80
2023/05/17 02:18:34;;;;;;;6.70;1.75;;;;;;;16.72;100.00;99593.94;5071310;28;20202;-80
2023/05/17 02:21:01;;;;;;;7.70;2.75;;;;;;;16.61;100.00;99580.16;5071145;28;20324;-82
2023/05/17 02:23:27;;;;;;;7.25;1.77;;;;;;;16.61;100.00;99580.16;5071249;28;20293;-80
2023/05/17 02:25:54;;;;;;;5.68;1.50;;;;;;;16.64;100.00;99569.66;5070902;28;20633;-81
2023/05/17 02:28:21;;;;;;;5.78;1.50;;;;;;;16.64;100.00;99560.03;5070701;28;20207;-82
2023/05/17 02:30:48;;;;;;;4.70;1.33;;;;;;;16.58;100.00;99564.53;5071006;28;20198;-81
2023/05/17 02:33:15;;;;;;;4.70;1.33;;;;;;;16.73;100.00;99575.56;5071111;28;20202;-81
2023/05/17 02:35:43;;;;;;;3.65;1.23;;;;;;;16.35;100.00;99557.88;5071442;28;20206;-80
2023/05/17 02:38:10;;;;;;;5.15;1.35;;;;;;;16.15;100.00;99552.13;5071513;28;20202;-80
2023/05/17 02:40:36;;;;;;;5.45;1.52;;;;;;;16.16;100.00;99548.59;5071002;28;20235;-80
2023/05/17 02:43:03;;;;;;;6.85;1.77;;;;;;;15.92;100.00;99522.84;5070758;28;20198;-80
2023/05/17 02:45:30;;;;;;;8.27;1.80;;;;;;;16.07;100.00;99514.75;5071022;28;20199;-79
2023/05/17 02:47:57;;;;;;;5.15;1.58;;;;;;;16.24;100.00;99541.50;5070657;28;20605;-80
2023/05/17 02:50:24;;;;;;;5.07;1.45;;;;;;;16.20;100.00;99539.81;5071028;28;20202;-80
2023/05/17 02:52:52;;;;;;;5.65;1.55;;;;;;;16.28;100.00;99551.03;5070938;28;20214;-80
2023/05/17 02:55:19;;;;;;;4.95;1.70;;;;;;;16.18;100.00;99541.63;5069109;28;20560;-80
2023/05/17 02:57:46;;;;;;;5.10;1.50;;;;;;;16.07;100.00;99520.00;5070652;28;20202;-80
2023/05/17 03:00:13;;;;;;;7.53;1.83;;;;;;;15.96;100.00;99508.84;5070523;28;20218;-80
2023/05/17 03:02:40;;;;;;;6.38;1.63;;;;;;;15.81;100.00;99517.78;5070759;28;20268;-81
2023/05/17 03:05:08;;;;;;;6.03;1.58;;;;;;;15.91;100.00;99528.94;5035265;28;20207;-78
2023/05/17 03:07:35;;;;;;;5.65;1.58;;;;;;;15.92;100.00;99530.69;5063442;28;20256;-81
2023/05/17 03:10:04;;;;;;;5.85;1.50;;;;;;;16.02;100.00;99534.88;5069716;28;20195;-80
2023/05/17 03:12:30;;;;;;;8.20;1.88;;;;;;;15.82;100.00;99531.72;5065648;28;20272;-79
2023/05/17 03:14:57;;;;;;;7.07;1.75;;;;;;;15.91;100.00;99538.56;5030019;28;20211;-81
2023/05/17 03:17:24;;;;;;;8.23;1.85;;;;;;;15.97;100.00;99554.16;5068906;28;20203;-78
2023/05/17 03:19:51;;;;;;;4.30;1.33;;;;;;;15.88;100.00;99544.69;5070198;28;20214;-81
2023/05/17 03:22:18;;;;;;;7.22;1.77;;;;;;;15.98;100.00;99555.91;5070463;28;20195;-80
2023/05/17 03:24:45;;;;;;;6.82;2.30;;;;;;;16.13;100.00;99560.88;5069995;28;20203;-77
2023/05/17 03:27:13;;;;;;;6.15;1.55;;;;;;;16.30;100.00;99566.72;5055828;28;20202;-75
2023/05/17 03:29:40;;;;;;;4.78;1.40;;;;;;;15.91;100.00;99551.66;5035234;28;20233;-78
2023/05/17 03:32:08;;;;;;;6.57;1.63;;;;;;;16.01;100.00;99577.63;5027779;28;20202;-76
2023/05/17 03:34:35;;;;;;;12.85;1.83;;;;;;;15.77;100.00;99565.75;5055878;28;20206;-76
2023/05/17 03:37:01;;;;;;;11.02;1.63;;;;;;;15.77;100.00;99572.75;5069981;28;20195;-76
2023/05/17 03:39:28;;;;;;;12.13;1.75;;;;;;;15.87;100.00;99584.81;5034697;28;20346;-76
2023/05/17 03:41:55;;;;;;;7.80;1.42;;;;;;;15.91;100.00;99577.78;5070614;28;20202;-76
2023/05/17 03:44:23;;;;;;;14.57;2.30;;;;;;;16.12;100.00;99569.63;5018839;28;20198;-76
2023/05/17 03:46:50;;;;;;;9.35;1.52;;;;;;;16.03;100.00;99575.84;5070538;28;20191;-77
2023/05/17 03:49:17;;;;;;;10.27;1.85;;;;;;;16.14;100.00;99575.69;5070593;28;20249;-77
2023/05/17 03:51:44;;;;;;;6.07;1.30;;;;;;;16.08;100.00;99573.16;5053489;28;20207;-78
2023/05/17 03:54:11;;;;;;;9.25;1.85;;;;;;;16.08;100.00;99584.50;5069205;28;20218;-79
2023/05/17 03:56:37;;;;;;;10.30;1.65;;;;;;;15.89;100.00;99551.66;5072417;28;20234;-78
2023/05/17 03:59:04;;;;;;;8.85;1.50;;;;;;;16.11;100.00;99579.22;5072922;28;20202;-77
2023/05/17 04:01:33;;;;;;;13.15;2.05;;;;;;;16.40;100.00;99586.59;5073422;28;20238;-76
2023/05/17 04:04:03;;;;;;;12.25;1.90;;;;;;;16.57;100.00;99586.34;5063875;28;20203;-79
2023/05/17 04:06:29;;;;;;;9.77;1.60;;;;;;;16.70;100.00;99591.34;5022199;28;20656;-75
2023/05/17 04:08:58;;;;;;;9.70;1.67;;;;;;;16.53;100.00;99608.19;5062711;28;20195;-77
2023/05/17 04:11:26;;;;;;;11.95;1.95;;;;;;;16.40;100.00;99593.59;5072800;28;20215;-77
2023/05/17 04:13:53;;;;;;;3.22;1.02;;;;;;;16.48;100.00;99596.94;5072852;28;20257;-79
2023/05/17 04:16:21;;;;;;;10.70;1.98;;;;;;;16.11;100.00;99584.44;5072991;28;20191;-76
2023/05/17 04:18:51;;;;;;;7.05;1.40;;;;;;;16.04;100.00;99569.75;5057487;28;20199;-78
2023/05/17 04:21:18;;;;;;;7.95;1.55;;;;;;;16.23;100.00;99584.25;5073258;28;20218;-77
2023/05/17 04:23:45;;;;;;;7.55;1.50;;;;;;;16.38;100.00;99596.22;5057739;28;20192;-81
2023/05/17 04:26:11;;;;;;;6.05;1.60;;;;;;;16.19;100.00;99550.34;5072806;28;20203;-76
2023/05/17 04:28:38;;;;;;;8.30;1.45;;;;;;;16.57;100.00;99596.81;5072797;28;20272;-78
2023/05/17 04:31:07;;;;;;;6.38;1.35;;;;;;;16.49;100.00;99569.88;5072557;28;20205;-76
2023/05/17 04:33:34;;;;;;;7.97;1.40;;;;;;;16.47;100.00;99584.75;5069305;28;20194;-77
2023/05/17 04:36:02;;;;;;;7.53;1.50;;;;;;;16.55;100.00;99591.56;5021350;28;20199;-78
2023/05/17 04:38:29;;;;;;;9.85;1.63;;;;;;;16.46;100.00;99590.84;5072793;28;20194;-77
2023/05/17 04:41:01;;;;;;;8.52;1.58;;;;;;;16.39;100.00;99566.56;5072658;28;20712;-77
2023/05/17 04:43:28;;;;;;;11.07;2.00;;;;;;;16.47;100.00;99597.84;5059066;28;20282;-77
2023/05/17 04:45:57;;;;;;;7.78;1.58;;;;;;;16.71;100.00;99584.34;5072682;28;20198;-78
2023/05/17 04:48:24;;;;;;;12.77;2.22;;;;;;;16.87;100.00;99596.28;5070768;28;20783;-77
2023/05/17 04:50:51;;;;;;;10.13;1.95;;;;;;;16.97;100.00;99595.22;5072167;28;20327;-78
2023/05/17 04:53:19;;;;;;;11.80;1.98;;;;;;;17.08;100.00;99595.88;5072437;28;20199;-76
2023/05/17 04:55:46;;;;;;;14.23;2.10;;;;;;;16.65;100.00;99597.56;5063067;28;20231;-75
2023/05/17 04:58:13;;;;;;;8.70;1.58;;;;;;;16.69;100.00;99601.84;5010924;28;20208;-77
2023/05/17 05:00:40;;;;;;;9.30;1.65;;;;;;;16.68;100.00;99602.72;5065564;28;20234;-79
2023/05/17 05:03:07;;;;;;;9.80;1.77;;;;;;;16.58;100.00;99580.22;5063974;28;20224;-77
2023/05/17 05:05:34;;;;;;;12.77;2.08;;;;;;;16.46;100.00;99593.47;5071153;28;20626;-76
2023/05/17 05:08:01;;;;;;;12.82;2.00;;;;;;;16.71;100.00;99600.06;5020005;28;20297;-78
2023/05/17 05:10:29;;;;;;;10.90;2.42;;;;;;;16.83;100.00;99592.88;5053128;28;20217;-81
2023/05/17 05:12:56;;;;;;;13.00;2.13;;;;;;;16.87;100.00;99598.03;5016915;28;20215;-83
2023/05/17 05:15:23;;;;;;;8.68;1.63;;;;;;;16.73;100.00;99598.28;5005745;28;20203;-79
2023/05/17 05:17:50;;;;;;;11.73;2.67;;;;;;;16.81;100.00;99588.53;5069308;28;20210;-77
2023/05/17 05:20:17;;;;;;;7.20;1.50;;;;;;;16.80;100.00;99592.06;5064635;28;20322;-77
2023/05/17 05:22:44;;;;;;;10.73;1.90;;;;;;;16.87;100.00;99593.66;5069492;28;20264;-80
2023/05/17 05:25:11;;;;;;;9.40;1.80;;;;;;;16.91;100.00;99589.25;5071658;28;20272;-79
2023/05/17 05:27:39;;;;;;;11.35;1.98;;;;;;;17.05;100.00;99569.72;5069453;28;20198;-76
2023/05/17 05:30:07;;;;;;;7.90;1.50;;;;;;;17.14;100.00;99602.75;5060309;28;20630;-78
2023/05/17 05:32:36;;;;;;;8.30;1.70;;;;;;;16.66;100.00;99532.06;5059795;28;20198;-74
2023/05/17 05:35:03;;;;;;;8.38;1.50;;;;;;;17.00;100.00;99610.00;5071268;28;20613;-81
2023/05/17 05:37:29;;;;;;;11.40;2.58;;;;;;;16.80;100.00;99613.84;5069311;28;20677;-79
2023/05/17 05:39:56;;;;;;;9.85;1.70;;;;;;;16.67;100.00;99621.94;5072201;28;20238;-77
2023/05/17 05:42:23;;;;;;;8.55;1.55;;;;;;;16.46;100.00;99611.78;5091792;28;20259;-78
2023/05/17 05:44:51;;;;;;;9.85;2.33;;;;;;;16.67;100.00;99628.03;5091637;28;20206;-77
2023/05/17 05:47:18;;;;;;;7.28;1.52;;;;;;;16.81;100.00;99640.88;5092048;28;20193;-77
2023/05/17 05:49:45;;;;;;;11.70;1.80;;;;;;;16.83;100.00;99633.91;5092041;28;20221;-78
2023/05/17 05:52:11;;;;;;;7.75;1.55;;;;;;;16.74;100.00;99608.72;5091351;28;20225;-76
2023/05/17 05:54:38;;;;;;;9.43;1.67;;;;;;;17.17;100.00;99644.59;5090835;28;20206;-76
2023/05/17 05:57:05;;;;;;;8.75;2.08;;;;;;;17.17;100.00;99644.59;5091007;28;20263;-77
2023/05/17 05:59:32;;;;;;;9.85;1.83;;;;;;;16.91;100.00;99631.16;5083942;28;20237;-76
2023/05/17 06:02:00;;;;;;;9.10;1.70;;;;;;;16.88;100.00;99623.31;5047655;28;20226;-76
2023/05/17 06:04:27;;;;;;;8.80;1.65;;;;;;;16.71;100.00;99621.00;5074241;28;20665;-76
2023/05/17 06:06:54;;;;;;;7.53;1.50;;;;;;;16.72;100.00;99586.09;5076805;28;20220;-76
2023/05/17 06:09:21;;;;;;;8.98;1.75;;;;;;;17.08;100.00;99627.31;5074536;28;20209;-76
2023/05/17 06:11:48;;;;;;;10.45;1.90;;;;;;;17.12;100.00;99644.69;5084788;28;20669;-76
2023/05/17 06:14:15;;;;;;;5.45;1.20;;;;;;;17.01;100.00;99637.94;5080954;28;20617;-75
2023/05/17 06:16:41;;;;;;;10.07;1.70;;;;;;;16.97;100.00;99650.22;5088324;28;20598;-75
2023/05/17 06:19:09;;;;;;;6.10;1.35;;;;;;;17.29;100.00;99640.00;5070548;28;20670;-78
2023/05/17 06:21:36;;;;;;;10.25;1.83;;;;;;;17.32;100.00;99634.72;5071582;28;20318;-75
2023/05/17 06:24:03;;;;;;;6.57;1.52;;;;;;;17.49;100.00;99646.59;5084928;28;20194;-75
2023/05/17 06:26:30;;;;;;;12.02;1.98;;;;;;;17.56;100.00;99643.88;5038868;28;20213;-77
2023/05/17 06:28:57;;;;;;;10.35;1.75;;;;;;;17.30;100.00;99646.97;5079416;28;20692;-77
2023/05/17 06:31:23;;;;;;;9.38;1.60;;;;;;;17.72;100.00;99644.44;5082682;28;20308;-78
2023/05/17 06:33:50;;;;;;;10.05;1.80;;;;;;;17.75;100.00;99644.34;5054846;28;20589;-77
2023/05/17 06:36:18;;;;;;;9.90;1.77;;;;;;;18.14;100.00;99640.88;5090695;28;20198;-77
2023/05/17 06:38:45;;;;;;;9.52;1.70;;;;;;;17.89;100.00;99623.94;5081437;28;20198;-77
2023/05/17 06:41:12;;;;;;;8.27;1.67;;;;;;;18.22;100.00;99649.44;5053725;28;20728;-77
2023/05/17 06:43:39;;;;;;;6.20;1.33;;;;;;;17.92;100.00;99642.22;5050928;28;20192;-76
2023/05/17 06:46:06;;;;;;;8.95;1.55;;;;;;;17.71;100.00;99647.94;4999510;28;20669;-77
2023/05/17 06:48:32;;;;;;;7.50;1.45;;;;;;;17.92;100.00;99644.84;5050925;28;20641;-77
2023/05/17 06:50:59;;;;;;;11.18;2.60;;;;;;;17.73;100.00;99635.63;5050683;28;20206;-77
2023/05/17 06:53:27;;;;;;;5.15;1.10;;;;;;;18.06;100.00;99641.91;5050442;28;20199;-77
2023/05/17 06:55:54;;;;;;;12.00;2.13;;;;;;;17.99;100.00;99635.94;5050236;28;20207;-76
2023/05/17 06:58:21;;;;;;;7.30;1.58;;;;;;;18.25;100.00;99646.72;5009218;28;20219;-78
2023/05/17 07:00:48;;;;;;;10.38;1.83;;;;;;;18.37;100.00;99656.06;4999433;28;20227;-77
2023/05/17 07:03:14;;;;;;;7.35;1.60;;;;;;;18.14;100.00;99643.50;5050609;28;20198;-77
2023/05/17 07:05:41;;;;;;;11.32;1.88;;;;;;;18.18;100.00;99657.41;5050420;28;20241;-77
2023/05/17 07:08:08;;;;;;;9.02;1.92;;;;;;;18.14;100.00;99661.00;5052734;28;20203;-77
2023/05/17 07:10:36;;;;;;;10.07;2.25;;;;;;;18.58;100.00;99654.75;5070036;28;20207;-77
2023/05/17 07:13:03;;;;;;;7.60;1.65;;;;;;;18.62;100.00;99669.53;5070145;28;20198;-77
2023/05/17 07:15:30;;;;;;;4.97;1.30;;;;;;;18.83;100.00;99670.75;5070233;28;20195;-77
2023/05/17 07:17:58;;;;;;;5.45;1.35;;;;;;;18.52;100.00;99661.00;5070214;28;20198;-78
2023/05/17 07:20:24;;;;;;;8.27;1.65;;;;;;;18.55;100.00;99667.94;5070393;28;20202;-76
2023/05/17 07:22:51;;;;;;;5.82;1.45;;;;;;;18.49;100.00;99665.41;5070241;28;20207;-76
2023/05/17 07:25:20;;;;;;;5.97;1.30;;;;;;;18.48;100.00;99651.41;5069994;28;20198;-80
2023/05/17 07:27:48;;;;;;;10.75;1.83;;;;;;;18.65;100.00;99662.44;5070344;28;20210;-77
2023/05/17 07:30:15;;;;;;;8.13;1.73;;;;;;;18.49;100.00;99665.41;5072130;28;20209;-78
2023/05/17 07:32:42;;;;;;;11.98;2.05;;;;;;;18.56;100.00;99656.53;5038692;28;20202;-77
2023/05/17 07:35:09;;;;;;;9.82;1.92;;;;;;;18.48;100.00;99645.34;5073474;28;20206;-76
2023/05/17 07:37:36;;;;;;;9.95;1.75;;;;;;;18.67;100.00;99655.38;5073354;28;20613;-76
2023/05/17 07:40:04;;;;;;;10.60;1.90;;;;;;;18.55;100.00;99633.81;5021450;28;20233;-77
2023/05/17 07:42:30;;;;;;;7.20;1.55;;;;;;;19.35;100.00;99657.09;5073485;28;20230;-76
2023/05/17 07:44:59;;;;;;;9.13;1.67;;;;;;;19.59;100.00;99649.44;5057752;28;20214;-77
2023/05/17 07:47:25;;;;;;;6.50;1.70;;;;;;;19.72;100.00;99658.72;5001686;28;20192;-77
2023/05/17 07:49:52;;;;;;;11.45;2.15;;;;;;;19.77;100.00;99662.06;5053450;28;20214;-77
2023/05/17 07:52:19;;;;;;;9.38;1.70;;;;;;;19.77;100.00;99653.28;5053431;28;20717;-77
2023/05/17 07:54:46;;;;;;;10.07;1.80;;;;;;;19.42;100.00;99629.78;5053606;28;20210;-77
2023/05/17 07:57:12;;;;;;;7.65;1.60;;;;;;;19.39;100.00;99658.75;5058718;28;20207;-76
2023/05/17 07:59:39;;;;;;;9.80;1.77;;;;;;;19.56;100.00;99654.78;5073334;28;20194;-77
2023/05/17 08:02:10;;;;;;;9.73;1.73;;;;;;;19.31;100.00;99665.09;5073058;28;20226;-77
2023/05/17 08:04:37;;;;;;;8.63;1.60;;;;;;;19.57;100.00;99655.66;5061070;28;20651;-76
2023/05/17 08:07:05;;;;;;;12.32;2.05;;;;;;;19.41;100.00;99654.31;5053170;28;20223;-76
2023/05/17 08:09:32;;;;;;;11.93;2.67;;;;;;;19.36;100.00;99661.47;5053494;28;20203;-76
2023/05/17 08:11:58;;;;;;;6.20;1.40;;;;;;;18.81;100.00;99658.50;5053659;28;20208;-76
2023/05/17 08:14:26;;;;;;;6.53;1.38;;;;;;;18.83;100.00;99672.47;5053500;28;20207;-76
2023/05/17 08:16:52;;;;;;;8.70;1.75;;;;;;;18.76;100.00;99672.69;5017740;28;20627;-76
2023/05/17 08:19:20;;;;;;;4.30;1.40;;;;;;;18.88;100.00;99667.09;5053837;28;20214;-77
2023/05/17 08:21:48;;;;;;;5.50;1.25;;;;;;;18.52;100.00;99671.50;5053550;28;20231;-76
2023/05/17 08:24:16;;;;;;;8.27;1.58;;;;;;;18.23;100.00;99659.00;5053421;28;20200;-76
2023/05/17 08:26:43;;;;;;;9.82;1.92;;;;;;;17.80;100.00;99643.34;5034905;28;20595;-76
2023/05/17 08:29:09;;;;;;;8.45;1.83;;;;;;;17.80;100.00;99652.97;5053107;28;20195;-75
2023/05/17 08:31:36;;;;;;;8.70;1.65;;;;;;;18.03;100.00;99639.38;5053163;28;20208;-77
2023/05/17 08:34:03;;;;;;;8.00;1.55;;;;;;;18.04;100.00;99648.97;5053221;28;20195;-76
2023/05/17 08:36:31;;;;;;;6.85;1.42;;;;;;;18.13;100.00;99638.25;5053131;28;20214;-77
2023/05/17 08:38:58;;;;;;;8.55;1.55;;;;;;;18.08;100.00;99655.88;5053388;28;20670;-77
2023/05/17 08:41:25;;;;;;;6.10;1.33;;;;;;;17.66;100.00;99662.88;5052551;28;20236;-77
2023/05/17 08:43:52;;;;;;;7.05;1.45;;;;;;;17.39;100.00;99604.00;5052928;28;20196;-75
2023/05/17 08:46:21;;;;;;;12.73;2.20;;;;;;;17.69;100.00;99649.75;5053047;28;20214;-76
2023/05/17 08:48:50;;;;;;;9.85;1.67;;;;;;;17.61;100.00;99656.88;5052283;28;20203;-76
2023/05/17 08:51:18;;;;;;;15.38;2.35;;;;;;;17.40;100.00;99649.41;5063012;28;20260;-75
2023/05/17 08:53:48;;;;;;;8.40;1.58;;;;;;;17.64;100.00;99659.44;5069430;28;20211;-76
2023/05/17 08:56:17;;;;;;;13.80;2.28;;;;;;;17.42;100.00;99639.75;5046476;28;20667;-76
2023/05/17 08:58:47;;;;;;;9.80;1.98;;;;;;;17.40;100.00;99631.06;5060994;28;20265;-76
2023/05/17 09:01:15;;;;;;;9.45;1.65;;;;;;;17.66;100.00;99665.50;5066284;28;20234;-76
2023/05/17 09:03:47;;;;;;;10.32;1.75;;;;;;;17.94;100.00;99665.81;5035983;28;20278;-77
2023/05/17 09:06:15;;;;;;;12.35;1.92;;;;;;;17.93;100.00;99654.47;5062468;28;20195;-75
2023/05/17 09:08:43;;;;;;;7.45;1.50;;;;;;;18.10;100.00;99661.94;5065414;28;20627;-76
2023/05/17 09:11:11;;;;;;;5.03;1.25;;;;;;;18.22;100.00;99657.31;5052081;28;20203;-76
2023/05/17 09:13:38;;;;;;;5.45;1.33;;;;;;;17.87;100.00;99633.63;5052591;28;20195;-76
2023/05/17 09:16:12;;;;;;;9.38;1.70;;;;;;;18.11;100.00;99663.69;5063026;28;20202;-76
2023/05/17 09:18:39;;;;;;;5.80;1.38;;;;;;;17.90;100.00;99658.91;5066942;28;20736;-76
2023/05/17 09:21:08;;;;;;;10.52;1.90;;;;;;;17.89;100.00;99668.53;5071719;28;20210;-76
2023/05/17 09:23:38;;;;;;;7.25;1.48;;;;;;;18.14;100.00;99674.97;5056489;28;20667;-76
2023/05/17 09:26:06;;;;;;;10.13;1.85;;;;;;;17.93;100.00;99672.81;5052439;28;20288;-75
2023/05/17 09:28:39;;;;;;;8.43;1.60;;;;;;;17.42;100.00;99597.81;5065621;28;20210;-75
2023/05/17 09:31:07;;;;;;;9.85;1.75;;;;;;;17.81;100.00;99668.69;5060192;28;20222;-77
2023/05/17 09:33:34;;;;;;;7.25;1.55;;;;;;;17.90;100.00;99670.28;5071625;28;20285;-76
2023/05/17 09:36:01;;;;;;;7.22;2.08;;;;;;;18.17;100.00;99667.03;5070906;28;20203;-75
2023/05/17 09:38:28;;;;;;;12.25;2.08;;;;;;;18.25;100.00;99670.34;5020222;28;20222;-76
2023/05/17 09:40:55;;;;;;;11.02;1.90;;;;;;;18.46;100.00;99674.25;5072080;28;20281;-76
2023/05/17 09:43:24;;;;;;;10.75;1.90;;;;;;;18.54;100.00;99676.72;5019889;28;20314;-74
2023/05/17 09:45:57;;;;;;;7.82;1.60;;;;;;;18.78;100.00;99652.47;5071943;28;20231;-72
2023/05/17 09:48:26;;;;;;;10.85;1.92;;;;;;;18.96;100.00;99680.06;5071493;28;20211;-74
2023/05/17 09:50:57;;;;;;;8.90;1.73;;;;;;;19.24;100.00;99683.69;5071599;28;20195;-74
2023/05/17 09:53:25;;;;;;;9.95;1.70;;;;;;;19.13;100.00;99681.34;5067740;28;20199;-75
2023/05/17 09:55:54;;;;;;;11.38;1.80;;;;;;;19.56;100.00;99680.22;5071220;28;20206;-75
2023/05/17 09:58:21;;;;;;;6.95;1.40;;;;;;;19.42;100.00;99687.63;5032685;28;20231;-75
2023/05/17 10:00:51;;;;;;;8.18;2.03;;;;;;;19.67;100.00;99672.88;5030782;28;20203;-76
2023/05/17 10:03:20;;;;;;;9.65;2.10;;;;;;;19.22;100.00;99632.94;5057174;28;20714;-73
2023/05/17 10:05:51;;;;;;;8.70;1.65;;;;;;;19.59;100.00;99678.34;5057580;28;20205;-76
2023/05/17 10:08:21;;;;;;;8.85;1.65;;;;;;;19.26;100.00;99688.00;5071493;28;20230;-74
2023/05/17 10:10:49;;;;;;;8.20;1.55;;;;;;;19.29;100.00;99687.06;5032500;28;20639;-77
2023/05/17 10:13:20;;;;;;;10.60;1.80;;;;;;;19.31;100.00;99648.44;5062789;28;20206;-78
2023/05/17 10:15:48;;;;;;;6.40;1.45;;;;;;;19.13;100.00;99696.25;5057117;28;20317;-75
2023/05/17 10:18:17;;;;;;;8.23;1.58;;;;;;;19.39;100.00;99664.00;5060582;28;20287;-78
2023/05/17 10:20:47;;;;;;;7.45;1.42;;;;;;;19.35;100.00;99686.03;5051051;28;20309;-78
2023/05/17 10:23:15;;;;;;;7.00;1.42;;;;;;;19.59;100.00;99694.13;5051427;28;20628;-76
2023/05/17 10:25:43;;;;;;;5.75;1.50;;;;;;;19.45;100.00;99687.53;5051479;28;20199;-75
2023/05/17 10:28:11;;;;;;;6.07;1.30;;;;;;;19.54;100.00;99692.56;5051412;28;20265;-75
2023/05/17 10:30:39;;;;;;;8.13;1.60;;;;;;;19.28;100.00;99683.56;5051559;28;20196;-76
2023/05/17 10:33:07;;;;;;;7.03;1.48;;;;;;;19.08;100.00;99656.09;5051449;28;20305;-77
2023/05/17 10:35:35;;;;;;;8.20;1.85;;;;;;;18.83;100.00;99672.47;5051074;28;20199;-75
2023/05/17 10:38:03;;;;;;;6.15;1.30;;;;;;;18.85;100.00;99669.81;5051057;28;20665;-76
2023/05/17 10:40:32;;;;;;;9.05;1.60;;;;;;;18.65;100.00;99643.19;5051134;28;20235;-75
2023/05/17 10:42:59;;;;;;;6.47;1.27;;;;;;;18.74;100.00;99666.59;5050863;28;20741;-75
2023/05/17 10:45:27;;;;;;;6.18;1.55;;;;;;;18.60;100.00;99668.69;5051146;28;20210;-75
2023/05/17 10:47:55;;;;;;;5.32;1.23;;;;;;;18.64;100.00;99665.09;5051249;28;20207;-76
2023/05/17 10:50:23;;;;;;;7.10;1.52;;;;;;;18.50;100.00;99654.03;5050929;28;20535;-75
2023/05/17 10:52:51;;;;;;;5.63;1.63;;;;;;;18.48;100.00;99651.41;5050895;28;20291;-75
2023/05/17 10:55:24;;;;;;;6.38;1.42;;;;;;;18.82;100.00;99654.13;5050889;28;20203;-76
2023/05/17 10:58:15;;;;;;;6.07;1.40;;;;;;;18.86;100.00;99655.78;5050943;28;20206;-76
2023/05/17 11:00:43;;;;;;;7.60;1.80;;;;;;;18.67;100.00;99657.13;5051059;28;20238;-75
2023/05/17 11:03:15;;;;;;;6.35;1.45;;;;;;;18.70;100.00;99654.44;5050971;28;20261;-76
2023/05/17 11:05:44;;;;;;;8.88;2.70;;;;;;;18.53;100.00;99652.22;5054526;28;20229;-75
2023/05/17 11:08:15;;;;;;;6.78;1.50;;;;;;;18.28;100.00;99636.16;5019969;28;20203;-76
2023/05/17 11:11:11;;;;;;;8.40;2.03;;;;;;;18.30;100.00;99650.09;5054916;28;20207;-75
2023/05/17 11:13:52;;;;;;;7.20;1.40;;;;;;;18.26;100.00;99651.06;4993296;28;20208;-77
2023/05/17 11:16:22;;;;;;;6.60;1.45;;;;;;;17.95;100.00;99638.66;4993445;28;20204;-77
2023/05/17 11:18:50;;;;;;;5.20;1.40;;;;;;;18.13;100.00;99651.38;4993456;28;20213;-76
2023/05/17 11:21:17;;;;;;;4.43;1.23;;;;;;;18.07;100.00;99647.16;4993343;28;20216;-77
2023/05/17 11:23:44;;;;;;;6.18;1.50;;;;;;;18.09;100.00;99655.84;4993312;28;20244;-76
2023/05/17 11:26:23;;;;;;;8.50;2.00;;;;;;;18.63;100.00;99653.72;4993272;28;20248;-76
2023/05/17 11:29:02;;;;;;;8.90;1.60;;;;;;;18.81;100.00;99662.91;4993287;28;20193;-77